createdAt,value
2023-05-21T00:01:50.023Z,2.75
2023-05-21T00:04:17.610Z,3.05
2023-05-21T00:06:44.087Z,2.90
2023-05-21T00:09:12.820Z,3.33
2023-05-21T00:11:39.340Z,3.17
2023-05-21T00:14:05.863Z,2.95
2023-05-21T00:16:32.572Z,3.10
2023-05-21T00:18:59.141Z,3.13
2023-05-21T00:21:26.767Z,3.03
2023-05-21T00:23:56.908Z,3.30
2023-05-21T00:26:26.389Z,2.78
2023-05-21T00:28:52.898Z,3.03
2023-05-21T00:31:19.496Z,3.22
2023-05-21T00:33:46.008Z,3.30
2023-05-21T00:36:14.448Z,3.45
2023-05-21T00:38:43.791Z,3.53
2023-05-21T00:41:10.908Z,3.63
2023-05-21T00:43:40.364Z,3.42
2023-05-21T00:46:19.598Z,3.47
2023-05-21T00:48:47.613Z,3.35
2023-05-21T00:51:15.186Z,3.40
2023-05-21T00:53:42.853Z,3.47
2023-05-21T00:56:09.386Z,3.60
2023-05-21T00:58:36.145Z,3.60
2023-05-21T01:01:06.945Z,3.80
2023-05-21T01:03:38.426Z,3.65
2023-05-21T01:06:06.259Z,3.40
2023-05-21T01:08:36.278Z,3.72
2023-05-21T01:11:04.708Z,3.72
2023-05-21T01:13:31.655Z,3.70
2023-05-21T01:15:59.894Z,3.92
2023-05-21T01:18:26.950Z,3.90
2023-05-21T01:20:53.719Z,4.30
2023-05-21T01:23:20.960Z,4.00
2023-05-21T01:25:47.655Z,3.78
2023-05-21T01:28:14.445Z,4.18
2023-05-21T01:30:43.134Z,4.07
2023-05-21T01:33:38.948Z,4.05
2023-05-21T01:36:32.859Z,4.13
2023-05-21T01:39:03.987Z,4.05
2023-05-21T01:41:34.849Z,4.60
2023-05-21T01:44:02.905Z,4.28
2023-05-21T01:46:32.401Z,4.63
2023-05-21T01:48:59.139Z,4.90
2023-05-21T01:51:27.038Z,4.93
2023-05-21T01:53:53.608Z,4.75
2023-05-21T01:56:20.163Z,4.78
2023-05-21T01:58:46.893Z,5.07
2023-05-21T02:01:13.332Z,5.20
2023-05-21T02:03:39.952Z,5.00
2023-05-21T02:06:06.454Z,5.07
2023-05-21T02:08:33.658Z,5.20
2023-05-21T02:11:00.143Z,4.72
2023-05-21T02:13:27.029Z,5.00
2023-05-21T02:15:54.622Z,5.55
2023-05-21T02:18:21.721Z,4.60
2023-05-21T02:20:48.199Z,4.97
2023-05-21T02:23:16.803Z,5.60
2023-05-21T02:25:43.904Z,5.32
2023-05-21T02:28:10.361Z,5.20
2023-05-21T02:30:36.978Z,4.95
2023-05-21T02:33:03.481Z,5.57
2023-05-21T02:35:29.926Z,4.95
2023-05-21T02:37:59.442Z,5.70
2023-05-21T02:40:26.171Z,5.13
2023-05-21T02:42:52.633Z,5.35
2023-05-21T02:45:19.161Z,5.38
2023-05-21T02:47:45.723Z,5.18
2023-05-21T02:50:13.871Z,5.47
2023-05-21T02:52:41.591Z,5.40
2023-05-21T02:55:08.606Z,5.63
2023-05-21T02:57:35.073Z,6.20
2023-05-21T03:00:01.518Z,6.00
2023-05-21T03:02:30.316Z,5.68
2023-05-21T03:04:56.824Z,6.00
2023-05-21T03:07:24.371Z,6.07
2023-05-21T03:09:50.905Z,5.55
2023-05-21T03:12:17.358Z,5.55
2023-05-21T03:14:44.276Z,6.35
2023-05-21T03:17:14.147Z,5.75
2023-05-21T03:19:41.987Z,5.80
2023-05-21T03:22:09.465Z,5.72
2023-05-21T03:24:36.906Z,5.85
2023-05-21T03:27:05.895Z,5.57
2023-05-21T03:29:32.620Z,5.70
2023-05-21T03:31:59.348Z,5.60
2023-05-21T03:34:25.926Z,6.22
2023-05-21T03:36:52.406Z,6.20
2023-05-21T03:39:18.965Z,5.90
2023-05-21T03:41:45.695Z,5.40
2023-05-21T03:44:12.385Z,5.85
2023-05-21T03:46:38.965Z,5.78
2023-05-21T03:49:05.945Z,5.82
2023-05-21T03:51:32.367Z,5.43
2023-05-21T03:53:59.689Z,5.38
2023-05-21T03:56:26.422Z,5.20
2023-05-21T03:58:53.144Z,5.22
2023-05-21T04:01:19.864Z,5.57
2023-05-21T04:03:46.712Z,5.22
2023-05-21T04:06:13.427Z,5.70
2023-05-21T04:08:39.960Z,5.50
2023-05-21T04:11:06.442Z,5.00
2023-05-21T04:13:33.046Z,5.47
2023-05-21T04:15:59.882Z,4.85
2023-05-21T04:18:26.847Z,5.60
2023-05-21T04:20:53.900Z,5.78
2023-05-21T04:23:23.613Z,5.18
2023-05-21T04:25:50.930Z,5.22
2023-05-21T04:28:20.162Z,4.65
2023-05-21T04:30:47.688Z,5.53
2023-05-21T04:33:17.950Z,5.40
2023-05-21T04:35:47.400Z,5.30
2023-05-21T04:38:14.135Z,5.43
2023-05-21T04:40:40.708Z,4.63
2023-05-21T04:43:08.213Z,5.35
2023-05-21T04:45:35.030Z,5.10
2023-05-21T04:48:02.922Z,5.65
2023-05-21T04:50:30.894Z,4.97
2023-05-21T04:52:58.919Z,4.85
2023-05-21T04:55:25.965Z,5.05
2023-05-21T04:57:53.162Z,4.93
2023-05-21T05:00:20.353Z,4.90
2023-05-21T05:02:47.957Z,5.00
2023-05-21T05:05:14.459Z,4.55
2023-05-21T05:07:41.059Z,4.28
2023-05-21T05:10:08.185Z,4.18
2023-05-21T05:12:38.728Z,5.30
2023-05-21T05:15:05.868Z,4.75
2023-05-21T05:17:32.391Z,4.30
2023-05-21T05:19:58.883Z,4.72
2023-05-21T05:22:25.525Z,4.03
2023-05-21T05:24:53.060Z,4.10
2023-05-21T05:27:20.739Z,4.50
2023-05-21T05:29:48.196Z,3.78
2023-05-21T05:32:14.733Z,3.97
2023-05-21T05:34:43.024Z,4.22
2023-05-21T05:37:09.474Z,4.00
2023-05-21T05:39:36.152Z,3.88
2023-05-21T05:42:03.894Z,3.97
2023-05-21T05:44:30.475Z,4.05
2023-05-21T05:46:56.947Z,3.90
2023-05-21T05:49:23.396Z,3.85
2023-05-21T05:51:49.965Z,3.65
2023-05-21T05:54:17.550Z,3.85
2023-05-21T05:56:44.097Z,3.70
2023-05-21T05:59:10.599Z,3.97
2023-05-21T06:01:37.100Z,4.55
2023-05-21T06:04:03.623Z,14.13
2023-05-21T06:06:30.118Z,32.72
2023-05-21T06:08:56.584Z,27.67
2023-05-21T06:11:23.113Z,8.20
2023-05-21T06:13:49.565Z,5.70
2023-05-21T06:16:16.161Z,5.63
2023-05-21T06:18:43.846Z,4.50
2023-05-21T06:21:10.372Z,10.23
2023-05-21T06:23:37.773Z,13.25
2023-05-21T06:26:04.812Z,5.80
2023-05-21T06:28:31.274Z,4.88
2023-05-21T06:30:57.937Z,4.93
2023-05-21T06:33:24.573Z,5.90
2023-05-21T06:35:51.409Z,5.53
2023-05-21T06:38:17.852Z,4.70
2023-05-21T06:40:47.428Z,4.45
2023-05-21T06:43:14.311Z,4.40
2023-05-21T06:45:41.171Z,4.85
2023-05-21T06:48:07.954Z,4.57
2023-05-21T06:50:35.719Z,4.30
2023-05-21T06:53:02.302Z,4.70
2023-05-21T06:55:28.969Z,4.38
2023-05-21T06:57:57.479Z,4.40
2023-05-21T07:00:23.989Z,4.10
2023-05-21T07:02:50.756Z,4.55
2023-05-21T07:05:17.340Z,4.63
2023-05-21T07:07:43.890Z,4.50
2023-05-21T07:10:10.620Z,4.47
2023-05-21T07:12:37.102Z,3.92
2023-05-21T07:15:03.870Z,5.07
2023-05-21T07:17:30.686Z,4.45
2023-05-21T07:19:57.260Z,4.88
2023-05-21T07:22:26.649Z,4.45
2023-05-21T07:24:54.517Z,4.70
2023-05-21T07:27:25.781Z,4.90
2023-05-21T07:29:52.882Z,4.30
2023-05-21T07:32:19.777Z,4.63
2023-05-21T07:34:49.476Z,4.68
2023-05-21T07:37:16.145Z,5.13
2023-05-21T07:39:44.012Z,4.70
2023-05-21T07:42:11.127Z,5.30
2023-05-21T07:44:43.807Z,4.47
2023-05-21T07:47:11.494Z,5.35
2023-05-21T07:49:37.973Z,4.75
2023-05-21T07:52:04.897Z,4.65
2023-05-21T07:54:31.521Z,4.57
2023-05-21T07:56:58.107Z,14.45
2023-05-21T07:59:27.816Z,7.25
2023-05-21T08:01:54.468Z,6.28
2023-05-21T08:04:21.261Z,5.38
2023-05-21T08:06:51.028Z,4.65
2023-05-21T08:09:21.446Z,4.65
2023-05-21T08:14:14.323Z,4.72
2023-05-21T08:16:40.873Z,4.43
2023-05-21T08:19:07.664Z,4.47
2023-05-21T08:21:34.653Z,4.40
2023-05-21T08:24:02.753Z,4.30
2023-05-21T08:26:29.343Z,4.70
2023-05-21T08:28:56.130Z,4.78
2023-05-21T08:31:22.671Z,4.70
2023-05-21T08:33:53.606Z,4.50
2023-05-21T08:36:20.442Z,4.72
2023-05-21T08:38:46.977Z,4.38
2023-05-21T08:41:14.064Z,4.80
2023-05-21T08:43:41.307Z,4.35
2023-05-21T08:46:08.865Z,4.65
2023-05-21T08:48:37.542Z,4.50
2023-05-21T08:51:04.504Z,4.47
2023-05-21T08:53:33.398Z,4.45
2023-05-21T08:56:04.587Z,4.55
2023-05-21T08:58:33.817Z,4.70
2023-05-21T09:01:04.660Z,4.40
2023-05-21T09:03:33.144Z,4.75
2023-05-21T09:06:00.856Z,4.57
2023-05-21T09:08:32.866Z,4.82
2023-05-21T09:11:01.671Z,4.90
2023-05-21T09:13:29.203Z,4.93
2023-05-21T09:15:55.972Z,4.75
2023-05-21T09:18:22.653Z,4.78
2023-05-21T09:20:49.398Z,4.55
2023-05-21T09:23:17.994Z,4.45
2023-05-21T09:25:51.936Z,4.72
2023-05-21T09:28:19.584Z,5.10
2023-05-21T09:30:48.268Z,4.50
2023-05-21T09:33:26.139Z,5.05
2023-05-21T09:35:52.715Z,4.50
2023-05-21T09:38:22.584Z,4.20
2023-05-21T09:40:49.266Z,4.88
2023-05-21T09:43:18.608Z,4.88
2023-05-21T09:45:55.845Z,9.10
2023-05-21T09:48:42.801Z,16.98
2023-05-21T09:51:17.272Z,65.10
2023-05-21T09:53:44.722Z,6.22
2023-05-21T09:56:11.365Z,7.65
2023-05-21T09:58:38.607Z,9.90
2023-05-21T10:01:06.422Z,12.75
2023-05-21T10:03:40.006Z,11.52
2023-05-21T10:06:12.246Z,5.40
2023-05-21T10:08:45.086Z,5.60
2023-05-21T10:11:12.123Z,6.15
2023-05-21T10:13:44.736Z,5.72
2023-05-21T10:16:11.554Z,5.72
2023-05-21T10:18:42.424Z,5.22
2023-05-21T10:21:09.148Z,5.75
2023-05-21T10:23:41.657Z,5.80
2023-05-21T10:26:08.530Z,5.60
2023-05-21T10:28:35.165Z,5.03
2023-05-21T10:31:02.472Z,5.65
2023-05-21T10:33:29.392Z,5.65
2023-05-21T10:35:58.599Z,5.25
2023-05-21T10:38:25.194Z,5.60
2023-05-21T10:40:53.557Z,5.55
2023-05-21T10:43:41.541Z,5.47
2023-05-21T10:46:08.184Z,4.93
2023-05-21T10:49:02.241Z,5.28
2023-05-21T10:51:36.176Z,5.32
2023-05-21T10:54:25.534Z,5.57
2023-05-21T10:57:14.187Z,5.53
2023-05-21T10:59:48.498Z,5.28
2023-05-21T11:02:16.541Z,5.25
2023-05-21T11:04:49.357Z,5.50
2023-05-21T11:07:23.458Z,5.72
2023-05-21T11:09:52.974Z,5.43
2023-05-21T11:12:23.036Z,5.47
2023-05-21T11:14:57.313Z,5.63
2023-05-21T11:17:39.046Z,5.50
2023-05-21T11:20:11.926Z,5.53
2023-05-21T11:22:38.407Z,5.35
2023-05-21T11:25:05.953Z,5.32
2023-05-21T11:27:42.046Z,5.63
2023-05-21T11:30:10.405Z,6.45
2023-05-21T11:33:08.099Z,5.82
2023-05-21T11:35:49.822Z,5.68
2023-05-21T11:38:17.692Z,5.78
2023-05-21T11:40:54.914Z,5.60
2023-05-21T11:43:21.575Z,5.70
2023-05-21T11:45:48.054Z,5.22
2023-05-21T11:48:18.535Z,5.40
2023-05-21T11:50:48.589Z,25.23
2023-05-21T11:53:15.536Z,9.90
2023-05-21T11:55:43.718Z,6.90
2023-05-21T11:58:13.593Z,13.45
2023-05-21T12:00:40.702Z,9.50
2023-05-21T12:03:14.898Z,18.20
2023-05-21T12:05:48.896Z,6.85
2023-05-21T12:08:25.709Z,8.73
2023-05-21T12:10:59.984Z,7.68
2023-05-21T12:13:30.682Z,8.63
2023-05-21T12:15:57.253Z,17.33
2023-05-21T12:18:23.794Z,9.68
2023-05-21T12:20:52.293Z,11.73
2023-05-21T12:23:26.240Z,11.15
2023-05-21T12:25:53.842Z,10.00
2023-05-21T12:28:32.965Z,8.55
2023-05-21T12:30:59.464Z,8.05
2023-05-21T12:33:34.416Z,8.00
2023-05-21T12:36:00.956Z,7.40
2023-05-21T12:38:32.535Z,7.20
2023-05-21T12:41:05.976Z,7.78
2023-05-21T12:43:33.260Z,8.25
2023-05-21T12:45:59.745Z,7.82
2023-05-21T12:48:28.406Z,7.78
2023-05-21T12:50:54.845Z,7.70
2023-05-21T12:53:21.399Z,8.32
2023-05-21T12:55:47.881Z,8.65
2023-05-21T12:58:14.625Z,8.63
2023-05-21T13:00:42.972Z,8.40
2023-05-21T13:03:09.494Z,8.80
2023-05-21T13:05:40.465Z,8.02
2023-05-21T13:08:06.899Z,8.52
2023-05-21T13:10:33.383Z,8.85
2023-05-21T13:13:00.324Z,7.97
2023-05-21T13:15:40.568Z,8.35
2023-05-21T13:18:07.137Z,8.48
2023-05-21T13:20:33.641Z,8.75
2023-05-21T13:23:06.257Z,9.20
2023-05-21T13:25:33.769Z,8.90
2023-05-21T13:28:10.210Z,9.00
2023-05-21T13:30:37.207Z,9.52
2023-05-21T13:33:04.047Z,9.98
2023-05-21T13:35:31.126Z,9.05
2023-05-21T13:37:57.578Z,8.90
2023-05-21T13:40:24.233Z,8.48
2023-05-21T13:42:54.885Z,9.02
2023-05-21T13:45:21.496Z,9.25
2023-05-21T13:47:48.546Z,9.52
2023-05-21T13:50:15.922Z,9.43
2023-05-21T13:52:42.699Z,9.02
2023-05-21T13:55:10.007Z,9.82
2023-05-21T13:57:36.548Z,10.05
2023-05-21T14:00:03.902Z,9.85
2023-05-21T14:02:34.889Z,8.75
2023-05-21T14:05:01.710Z,9.18
2023-05-21T14:07:28.332Z,9.50
2023-05-21T14:09:54.876Z,9.43
2023-05-21T14:12:24.483Z,9.13
2023-05-21T14:14:51.317Z,9.25
2023-05-21T14:17:17.818Z,9.35
2023-05-21T14:19:44.378Z,9.55
2023-05-21T14:22:13.920Z,9.15
2023-05-21T14:24:40.423Z,9.00
2023-05-21T14:27:06.911Z,10.02
2023-05-21T14:29:33.532Z,9.50
2023-05-21T14:32:00.147Z,9.40
2023-05-21T14:34:26.885Z,9.48
2023-05-21T14:36:53.380Z,8.98
2023-05-21T14:39:19.859Z,9.13
2023-05-21T14:41:46.390Z,9.50
2023-05-21T14:44:13.941Z,9.43
2023-05-21T14:46:40.573Z,9.65
2023-05-21T14:49:07.091Z,10.77
2023-05-21T14:51:36.796Z,10.38
2023-05-21T14:54:03.406Z,9.57
2023-05-21T14:56:31.050Z,9.18
2023-05-21T14:58:57.543Z,9.43
2023-05-21T15:01:28.260Z,8.48
2023-05-21T15:03:56.945Z,8.95
2023-05-21T15:06:24.824Z,9.63
2023-05-21T15:08:51.279Z,8.73
2023-05-21T15:11:17.908Z,10.40
2023-05-21T15:13:44.364Z,12.20
2023-05-21T15:16:10.856Z,9.43
2023-05-21T15:18:37.567Z,13.43
2023-05-21T15:21:05.186Z,19.08
2023-05-21T15:23:32.259Z,21.98
2023-05-21T15:25:58.754Z,16.20
2023-05-21T15:28:25.413Z,16.15
2023-05-21T15:30:51.938Z,14.23
2023-05-21T15:33:19.471Z,53.35
2023-05-21T15:35:46.298Z,17.15
2023-05-21T15:38:13.055Z,22.70
2023-05-21T15:40:42.025Z,15.10
2023-05-21T15:43:08.927Z,26.60
2023-05-21T15:45:35.973Z,19.52
2023-05-21T15:48:02.570Z,21.23
2023-05-21T15:50:29.080Z,24.98
2023-05-21T15:52:55.613Z,23.33
2023-05-21T15:55:22.178Z,22.73
2023-05-21T15:57:48.648Z,28.02
2023-05-21T16:00:15.368Z,31.88
2023-05-21T16:02:42.132Z,21.95
2023-05-21T16:05:09.231Z,30.13
2023-05-21T16:07:37.721Z,24.23
2023-05-21T16:10:05.073Z,10.98
2023-05-21T16:12:32.588Z,12.38
2023-05-21T16:14:59.116Z,10.50
2023-05-21T16:17:25.618Z,11.45
2023-05-21T16:19:52.641Z,10.18
2023-05-21T16:22:20.811Z,14.27
2023-05-21T16:24:47.932Z,8.68
2023-05-21T16:27:16.987Z,9.52
2023-05-21T16:29:43.450Z,8.75
2023-05-21T16:32:10.744Z,9.20
2023-05-21T16:34:37.334Z,9.30
2023-05-21T16:37:04.005Z,9.00
2023-05-21T16:39:30.637Z,9.32
2023-05-21T16:41:59.630Z,9.32
2023-05-21T16:44:26.788Z,9.13
2023-05-21T16:46:53.352Z,9.75
2023-05-21T16:49:19.869Z,9.93
2023-05-21T16:51:46.318Z,9.70
2023-05-21T16:54:12.794Z,9.98
2023-05-21T16:56:40.547Z,9.02
2023-05-21T16:59:08.108Z,9.80
2023-05-21T17:01:34.756Z,9.38
2023-05-21T17:04:01.683Z,9.15
2023-05-21T17:06:28.545Z,9.25
2023-05-21T17:08:55.004Z,9.90
2023-05-21T17:11:21.841Z,9.30
2023-05-21T17:13:48.992Z,9.27
2023-05-21T17:16:15.505Z,8.65
2023-05-21T17:18:42.003Z,9.48
2023-05-21T17:21:12.788Z,9.07
2023-05-21T17:23:39.335Z,9.57
2023-05-21T17:26:09.573Z,9.45
2023-05-21T17:28:36.936Z,9.00
2023-05-21T17:31:03.598Z,9.00
2023-05-21T17:33:30.187Z,9.15
2023-05-21T17:35:57.044Z,9.77
2023-05-21T17:38:23.559Z,9.65
2023-05-21T17:40:53.344Z,8.73
2023-05-21T17:43:19.832Z,9.30
2023-05-21T17:45:46.398Z,9.27
2023-05-21T17:48:12.993Z,8.70
2023-05-21T17:50:39.508Z,8.75
2023-05-21T17:53:05.983Z,9.63
2023-05-21T17:55:32.494Z,9.50
2023-05-21T17:57:59.042Z,9.20
2023-05-21T18:00:25.710Z,8.80
2023-05-21T18:02:52.238Z,9.15
2023-05-21T18:05:18.974Z,8.20
2023-05-21T18:07:45.537Z,9.05
2023-05-21T18:10:12.483Z,9.10
2023-05-21T18:12:39.482Z,8.90
2023-05-21T18:15:06.619Z,9.35
2023-05-21T18:17:33.314Z,9.00
2023-05-21T18:19:59.826Z,9.57
2023-05-21T18:22:26.300Z,9.27
2023-05-21T18:24:52.747Z,9.80
2023-05-21T18:27:19.190Z,9.88
2023-05-21T18:29:46.979Z,10.20
2023-05-21T18:32:16.683Z,9.63
2023-05-21T18:34:47.693Z,10.10
2023-05-21T18:37:14.755Z,10.25
2023-05-21T18:39:41.197Z,10.27
2023-05-21T18:42:13.296Z,10.18
2023-05-21T18:44:40.716Z,10.00
2023-05-21T18:47:07.718Z,10.75
2023-05-21T18:49:35.923Z,10.00
2023-05-21T18:52:03.194Z,9.77
2023-05-21T18:54:29.703Z,9.77
2023-05-21T18:56:59.591Z,10.15
2023-05-21T18:59:29.324Z,10.88
2023-05-21T19:01:55.963Z,9.88
2023-05-21T19:04:22.672Z,9.68
2023-05-21T19:06:50.318Z,10.10
2023-05-21T19:09:17.062Z,10.50
2023-05-21T19:11:43.767Z,9.93
2023-05-21T19:14:10.250Z,9.95
2023-05-21T19:16:36.822Z,9.95
2023-05-21T19:19:04.201Z,10.57
2023-05-21T19:21:31.525Z,10.25
2023-05-21T19:23:58.508Z,10.35
2023-05-21T19:26:25.090Z,10.52
2023-05-21T19:28:54.450Z,10.45
2023-05-21T19:31:22.419Z,10.30
2023-05-21T19:33:49.326Z,10.07
2023-05-21T19:36:15.924Z,10.65
2023-05-21T19:38:49.637Z,10.95
2023-05-21T19:41:17.051Z,10.38
2023-05-21T19:43:44.627Z,11.88
2023-05-21T19:46:11.384Z,10.75
2023-05-21T19:48:38.024Z,11.15
2023-05-21T19:51:04.581Z,10.52
2023-05-21T19:53:31.071Z,10.68
2023-05-21T19:55:57.618Z,11.23
2023-05-21T19:58:26.886Z,10.95
2023-05-21T20:00:58.424Z,10.68
2023-05-21T20:03:26.617Z,11.50
2023-05-21T20:05:53.410Z,11.40
2023-05-21T20:08:20.461Z,12.48
2023-05-21T20:10:48.848Z,10.98
2023-05-21T20:13:17.773Z,11.30
2023-05-21T20:15:44.318Z,10.93
2023-05-21T20:18:12.764Z,12.50
2023-05-21T20:20:40.963Z,12.32
2023-05-21T20:23:08.040Z,12.77
2023-05-21T20:25:34.575Z,12.18
2023-05-21T20:28:01.451Z,11.65
2023-05-21T20:30:54.722Z,12.07
2023-05-21T20:33:21.296Z,11.30
2023-05-21T20:35:47.886Z,12.13
2023-05-21T20:38:15.734Z,11.40
2023-05-21T20:40:43.223Z,11.35
2023-05-21T20:43:15.238Z,11.52
2023-05-21T20:45:42.075Z,12.10
2023-05-21T20:48:09.938Z,11.43
2023-05-21T20:50:37.511Z,11.82
2023-05-21T20:53:04.299Z,11.63
2023-05-21T20:55:34.878Z,11.30
2023-05-21T20:58:05.279Z,12.23
2023-05-21T21:03:01.167Z,11.48
2023-05-21T21:05:28.328Z,11.60
2023-05-21T21:07:55.953Z,12.07
2023-05-21T21:10:22.868Z,13.43
2023-05-21T21:12:49.347Z,14.05
2023-05-21T21:15:15.886Z,13.70
2023-05-21T21:17:42.456Z,12.43
2023-05-21T21:20:10.673Z,12.00
2023-05-21T21:22:37.259Z,13.48
2023-05-21T21:25:04.050Z,12.23
2023-05-21T21:27:30.681Z,13.20
2023-05-21T21:29:57.155Z,12.18
2023-05-21T21:32:25.851Z,11.93
2023-05-21T21:34:52.773Z,12.48
2023-05-21T21:37:19.318Z,12.15
2023-05-21T21:39:45.859Z,11.60
2023-05-21T21:42:12.384Z,12.20
2023-05-21T21:44:39.394Z,10.95
2023-05-21T21:47:06.067Z,11.20
2023-05-21T21:49:32.680Z,10.25
2023-05-21T21:51:59.236Z,10.65
2023-05-21T21:54:27.607Z,11.13
2023-05-21T21:56:54.464Z,10.10
2023-05-21T21:59:22.386Z,10.25
2023-05-21T22:01:49.263Z,10.15
2023-05-21T22:04:15.795Z,9.82
2023-05-21T22:06:45.231Z,10.20
2023-05-21T22:09:12.258Z,10.00
2023-05-21T22:11:38.813Z,10.30
2023-05-21T22:14:06.158Z,10.50
2023-05-21T22:16:36.622Z,10.18
2023-05-21T22:19:03.575Z,10.52
2023-05-21T22:21:32.934Z,10.52
2023-05-21T22:23:59.928Z,11.02
2023-05-21T22:26:26.398Z,10.05
2023-05-21T22:28:52.888Z,9.82
2023-05-21T22:31:19.474Z,10.00
2023-05-21T22:33:46.006Z,9.80
2023-05-21T22:36:12.493Z,10.93
2023-05-21T22:38:39.018Z,9.63
2023-05-21T22:41:05.623Z,9.30
2023-05-21T22:43:34.695Z,9.23
2023-05-21T22:46:01.866Z,9.07
2023-05-21T22:48:30.684Z,9.05
2023-05-21T22:50:58.390Z,8.82
2023-05-21T22:53:25.709Z,8.63
2023-05-21T22:55:52.342Z,9.38
2023-05-21T22:58:19.230Z,8.98
2023-05-21T23:00:46.928Z,9.70
2023-05-21T23:03:14.245Z,8.15
2023-05-21T23:05:40.897Z,8.90
2023-05-21T23:08:07.577Z,8.57
2023-05-21T23:10:34.203Z,8.95
2023-05-21T23:13:00.662Z,8.85
2023-05-21T23:15:29.526Z,8.52
2023-05-21T23:17:56.983Z,8.63
2023-05-21T23:20:24.958Z,9.27
2023-05-21T23:22:52.086Z,9.52
2023-05-21T23:25:18.567Z,9.35
2023-05-21T23:27:47.748Z,9.18
2023-05-21T23:30:14.356Z,9.43
2023-05-21T23:32:40.838Z,9.55
2023-05-21T23:35:09.299Z,9.30
2023-05-21T23:37:35.823Z,8.60
2023-05-21T23:40:02.235Z,9.10
2023-05-21T23:42:28.747Z,9.75
2023-05-21T23:44:55.364Z,9.15
2023-05-21T23:47:21.871Z,10.18
2023-05-21T23:49:48.329Z,9.40
2023-05-21T23:52:17.295Z,9.65
2023-05-21T23:54:44.407Z,9.90
2023-05-21T23:57:11.503Z,9.32
2023-05-21T23:59:38.028Z,9.18
